createdAt,value
2022-12-17T00:01:44.236Z,99654.81
2022-12-17T00:03:35.197Z,99665.03
2022-12-17T00:05:26.612Z,99653.94
2022-12-17T00:07:17.257Z,99644.50
2022-12-17T00:09:08.091Z,99659.91
2022-12-17T00:10:59.311Z,99653.09
2022-12-17T00:12:49.734Z,99665.91
2022-12-17T00:14:40.402Z,99653.97
2022-12-17T00:16:31.166Z,99652.22
2022-12-17T00:18:26.253Z,99667.63
2022-12-17T00:20:16.959Z,99652.25
2022-12-17T00:22:07.509Z,99664.22
2022-12-17T00:23:58.418Z,99664.22
2022-12-17T00:25:48.851Z,99665.94
2022-12-17T00:27:39.318Z,99666.81
2022-12-17T00:29:29.995Z,99659.97
2022-12-17T00:31:20.847Z,99653.16
2022-12-17T00:33:11.382Z,99654.84
2022-12-17T00:35:02.094Z,99659.16
2022-12-17T00:36:52.705Z,99646.31
2022-12-17T00:38:43.304Z,99650.63
2022-12-17T00:40:34.045Z,99639.47
2022-12-17T00:42:24.708Z,99640.34
2022-12-17T00:44:15.501Z,99639.47
2022-12-17T00:46:06.225Z,99646.31
2022-12-17T00:47:57.052Z,99645.47
2022-12-17T00:49:47.655Z,99638.63
2022-12-17T00:51:38.343Z,99637.75
2022-12-17T00:53:29.248Z,99636.91
2022-12-17T00:55:19.954Z,99644.59
2022-12-17T00:57:10.773Z,99637.75
2022-12-17T00:59:01.338Z,99643.72
2022-12-17T01:00:52.083Z,99650.56
2022-12-17T01:02:43.269Z,99659.94
2022-12-17T01:04:33.957Z,99663.38
2022-12-17T01:06:24.627Z,99656.50
2022-12-17T01:08:15.710Z,99660.75
2022-12-17T01:10:06.347Z,99656.47
2022-12-17T01:11:57.488Z,99661.59
2022-12-17T01:13:48.193Z,99659.03
2022-12-17T01:15:41.548Z,99659.06
2022-12-17T01:17:32.160Z,99662.47
2022-12-17T01:19:22.744Z,99654.75
2022-12-17T01:21:16.694Z,99648.81
2022-12-17T01:23:07.237Z,99641.94
2022-12-17T01:24:57.971Z,99634.28
2022-12-17T01:26:48.665Z,99632.56
2022-12-17T01:28:42.995Z,99626.59
2022-12-17T01:30:33.570Z,99621.44
2022-12-17T01:32:24.315Z,99622.31
2022-12-17T01:34:15.046Z,99620.59
2022-12-17T01:36:13.336Z,99611.19
2022-12-17T01:38:04.108Z,99611.19
2022-12-17T01:39:54.836Z,99625.72
2022-12-17T01:41:45.454Z,99623.19
2022-12-17T01:43:56.092Z,99632.59
2022-12-17T01:45:55.451Z,99627.44
2022-12-17T01:47:49.800Z,99620.63
2022-12-17T01:49:42.250Z,99613.81
2022-12-17T01:51:33.573Z,99609.50
2022-12-17T01:53:25.673Z,99605.25
2022-12-17T01:55:16.543Z,99597.53
2022-12-17T01:57:07.238Z,99590.72
2022-12-17T01:58:58.483Z,99596.72
2022-12-17T02:00:49.324Z,99594.13
2022-12-17T02:02:39.877Z,99591.59
2022-12-17T02:04:30.645Z,99597.56
2022-12-17T02:06:44.612Z,99585.63
2022-12-17T02:08:56.744Z,99582.19
2022-12-17T02:13:06.827Z,99591.53
2022-12-17T02:15:05.285Z,99589.00
2022-12-17T02:17:02.578Z,99590.72
2022-12-17T02:18:59.136Z,99589.00
2022-12-17T02:20:54.168Z,99594.13
2022-12-17T02:23:23.831Z,99586.44
2022-12-17T02:25:31.133Z,99578.75
2022-12-17T02:27:25.029Z,99572.78
2022-12-17T02:29:16.892Z,99569.34
2022-12-17T02:31:07.696Z,99568.50
2022-12-17T02:33:00.735Z,99565.97
2022-12-17T02:34:51.466Z,99565.97
2022-12-17T02:36:42.085Z,99564.25
2022-12-17T02:38:37.670Z,99550.59
2022-12-17T02:40:28.975Z,99561.69
2022-12-17T02:42:19.708Z,99549.72
2022-12-17T02:44:11.955Z,99542.06
2022-12-17T02:46:02.700Z,99536.94
2022-12-17T02:47:53.626Z,99548.03
2022-12-17T02:49:44.388Z,99543.75
2022-12-17T02:51:34.988Z,99545.47
2022-12-17T02:53:26.269Z,99531.78
2022-12-17T02:55:16.764Z,99536.94
2022-12-17T02:58:39.322Z,99518.97
2022-12-17T03:00:30.530Z,99522.41
2022-12-17T03:02:21.020Z,99519.84
2022-12-17T03:04:22.733Z,99509.59
2022-12-17T03:06:13.251Z,99523.25
2022-12-17T03:08:03.715Z,99517.28
2022-12-17T03:09:54.452Z,99507.88
2022-12-17T03:11:49.007Z,99504.47
2022-12-17T03:13:42.847Z,99496.78
2022-12-17T03:15:33.406Z,99494.22
2022-12-17T03:17:24.010Z,99500.22
2022-12-17T03:19:14.826Z,99492.53
2022-12-17T03:21:05.339Z,99497.63
2022-12-17T03:22:55.854Z,99491.66
2022-12-17T03:24:46.376Z,99495.91
2022-12-17T03:28:22.465Z,99483.09
2022-12-17T03:30:12.784Z,99491.59
2022-12-17T03:32:03.632Z,99498.44
2022-12-17T03:33:54.418Z,99489.03
2022-12-17T03:36:01.912Z,99506.13
2022-12-17T03:37:52.685Z,99502.72
2022-12-17T03:39:43.321Z,99512.94
2022-12-17T03:41:34.170Z,99503.50
2022-12-17T03:43:27.912Z,99508.59
2022-12-17T03:45:18.026Z,99513.69
2022-12-17T03:47:08.474Z,99522.25
2022-12-17T03:48:59.589Z,99532.47
2022-12-17T03:50:50.020Z,99540.97
2022-12-17T03:52:40.525Z,99553.78
2022-12-17T03:54:31.199Z,99553.75
2022-12-17T03:56:21.550Z,99549.44
2022-12-17T03:58:12.131Z,99532.38
2022-12-17T04:00:02.774Z,99543.47
2022-12-17T04:01:53.597Z,99571.63
2022-12-17T04:03:44.377Z,99585.28
2022-12-17T04:05:35.037Z,99609.16
2022-12-17T04:07:25.802Z,99602.34
2022-12-17T04:09:16.626Z,99587.00
2022-12-17T04:11:07.341Z,99609.13
2022-12-17T04:12:58.200Z,99607.50
2022-12-17T04:14:48.986Z,99604.06
2022-12-17T04:16:39.672Z,99618.63
2022-12-17T04:18:30.296Z,99614.38
2022-12-17T04:20:20.739Z,99611.81
2022-12-17T04:22:11.081Z,99614.34
2022-12-17T04:24:01.655Z,99594.72
2022-12-17T04:25:52.436Z,99592.13
2022-12-17T04:27:43.319Z,99586.06
2022-12-17T04:29:33.985Z,99587.75
2022-12-17T04:31:24.778Z,99572.44
2022-12-17T04:33:15.265Z,99563.88
2022-12-17T04:35:05.985Z,99584.38
2022-12-17T04:36:56.626Z,99581.88
2022-12-17T04:38:47.352Z,99595.53
2022-12-17T04:40:37.887Z,99593.00
2022-12-17T04:42:28.397Z,99594.72
2022-12-17T04:44:20.148Z,99598.97
2022-12-17T04:46:11.049Z,99605.84
2022-12-17T04:48:01.452Z,99591.34
2022-12-17T04:49:52.257Z,99591.34
2022-12-17T04:51:42.929Z,99603.28
2022-12-17T04:53:33.728Z,99595.63
2022-12-17T04:55:24.832Z,99594.78
2022-12-17T04:57:15.551Z,99599.06
2022-12-17T04:59:06.013Z,99596.47
2022-12-17T05:00:56.676Z,99586.25
2022-12-17T05:02:47.400Z,99582.00
2022-12-17T05:04:38.159Z,99584.56
2022-12-17T05:06:29.328Z,99605.91
2022-12-17T05:08:20.093Z,99598.22
2022-12-17T05:10:24.621Z,99590.56
2022-12-17T05:12:15.433Z,99584.59
2022-12-17T05:14:06.164Z,99592.31
2022-12-17T05:15:56.879Z,99598.31
2022-12-17T05:17:47.574Z,99604.28
2022-12-17T05:19:38.194Z,99600.88
2022-12-17T05:21:33.168Z,99591.47
2022-12-17T05:23:25.630Z,99588.09
2022-12-17T05:25:16.517Z,99591.47
2022-12-17T05:27:07.463Z,99575.28
2022-12-17T05:28:58.479Z,99586.38
2022-12-17T05:30:49.384Z,99584.66
2022-12-17T05:32:39.758Z,99582.06
2022-12-17T05:34:41.027Z,99588.03
2022-12-17T05:36:31.769Z,99598.28
2022-12-17T05:38:26.354Z,99590.59
2022-12-17T05:40:16.889Z,99595.75
2022-12-17T05:42:07.472Z,99588.88
2022-12-17T05:43:57.726Z,99584.56
2022-12-17T05:45:48.079Z,99576.06
2022-12-17T05:47:38.627Z,99576.03
2022-12-17T05:49:42.808Z,99578.59
2022-12-17T05:51:38.346Z,99584.56
2022-12-17T05:53:29.422Z,99580.28
2022-12-17T05:55:19.936Z,99570.94
2022-12-17T05:57:10.924Z,99562.38
2022-12-17T05:58:47.134Z,99567.50
2022-12-17T06:00:37.847Z,99563.22
2022-12-17T06:02:28.551Z,99561.50
2022-12-17T06:04:19.387Z,99558.09
2022-12-17T06:06:14.333Z,99554.69
2022-12-17T06:08:04.879Z,99556.38
2022-12-17T06:09:55.389Z,99562.38
2022-12-17T06:11:46.035Z,99555.53
2022-12-17T06:13:36.968Z,99564.06
2022-12-17T06:15:27.803Z,99570.03
2022-12-17T06:17:18.547Z,99579.41
2022-12-17T06:19:09.274Z,99565.75
2022-12-17T06:21:00.487Z,99558.09
2022-12-17T06:22:51.194Z,99551.25
2022-12-17T06:24:45.913Z,99532.47
2022-12-17T06:26:37.087Z,99529.03
2022-12-17T06:28:27.657Z,99538.41
2022-12-17T06:30:19.113Z,99545.28
2022-12-17T06:32:09.951Z,99556.34
2022-12-17T06:34:00.832Z,99556.34
2022-12-17T06:35:51.686Z,99561.50
2022-12-17T06:37:42.402Z,99581.97
2022-12-17T06:39:33.267Z,99567.47
2022-12-17T06:41:23.980Z,99549.53
2022-12-17T06:43:15.688Z,99558.97
2022-12-17T06:45:06.384Z,99565.78
2022-12-17T06:46:56.839Z,99563.25
2022-12-17T06:48:47.469Z,99582.06
2022-12-17T06:50:37.968Z,99590.63
2022-12-17T06:52:28.400Z,99595.78
2022-12-17T06:54:19.165Z,99615.41
2022-12-17T06:56:10.341Z,99605.19
2022-12-17T06:58:01.119Z,99608.66
2022-12-17T06:59:51.841Z,99605.25
2022-12-17T07:01:42.597Z,99607.81
2022-12-17T07:03:33.445Z,99631.78
2022-12-17T07:05:24.432Z,99708.66
2022-12-17T07:07:14.968Z,99717.19
2022-12-17T07:09:06.104Z,99746.31
2022-12-17T07:10:56.684Z,99734.38
2022-12-17T07:12:47.808Z,99741.28
2022-12-17T07:14:38.696Z,99756.66
2022-12-17T07:16:29.156Z,99771.22
2022-12-17T07:18:21.751Z,99801.22
2022-12-17T07:20:12.566Z,99800.41
2022-12-17T07:22:03.260Z,99798.59
2022-12-17T07:23:53.850Z,99779.75
2022-12-17T07:25:46.254Z,99811.38
2022-12-17T07:27:37.061Z,99856.59
2022-12-17T07:29:27.773Z,99864.22
2022-12-17T07:31:18.545Z,99874.38
2022-12-17T07:33:20.287Z,99841.16
2022-12-17T07:35:10.908Z,99864.28
2022-12-17T07:37:01.686Z,99882.25
2022-12-17T07:38:52.522Z,99877.19
2022-12-17T07:40:43.055Z,99901.22
2022-12-17T07:42:34.239Z,99910.72
2022-12-17T07:44:25.004Z,99897.88
2022-12-17T07:46:15.707Z,99899.63
2022-12-17T07:48:13.441Z,99915.09
2022-12-17T07:50:03.917Z,99923.69
2022-12-17T07:51:54.406Z,99969.00
2022-12-17T07:53:45.105Z,99981.06
2022-12-17T07:55:35.830Z,99967.34
2022-12-17T07:57:26.533Z,99985.34
2022-12-17T07:59:17.164Z,99959.72
2022-12-17T08:01:07.879Z,99928.06
2022-12-17T08:02:58.460Z,99921.25
2022-12-17T08:04:48.995Z,99906.75
2022-12-17T08:06:39.645Z,99911.91
2022-12-17T08:08:31.972Z,99950.44
2022-12-17T08:10:22.852Z,99937.63
2022-12-17T08:12:13.628Z,99933.31
2022-12-17T08:14:04.438Z,99936.69
2022-12-17T08:15:54.857Z,99982.91
2022-12-17T08:17:45.777Z,99979.44
2022-12-17T08:19:36.650Z,99969.09
2022-12-17T08:21:27.186Z,99976.84
2022-12-17T08:23:23.982Z,99980.28
2022-12-17T08:25:14.736Z,99992.25
2022-12-17T08:27:05.573Z,99930.63
2022-12-17T08:28:56.256Z,99944.31
2022-12-17T08:30:47.373Z,99911.75
2022-12-17T08:32:38.025Z,99977.69
2022-12-17T08:34:28.711Z,99960.53
2022-12-17T08:36:19.410Z,99971.66
2022-12-17T08:38:10.153Z,99999.09
2022-12-17T08:40:00.850Z,99999.13
2022-12-17T08:41:54.893Z,99985.44
2022-12-17T08:43:47.379Z,99982.88
2022-12-17T08:45:37.995Z,99992.31
2022-12-17T08:47:28.842Z,99980.34
2022-12-17T08:49:19.859Z,99971.81
2022-12-17T08:51:10.721Z,99975.19
2022-12-17T08:53:01.336Z,99987.22
2022-12-17T08:54:52.244Z,100002.66
2022-12-17T08:56:43.079Z,99984.72
2022-12-17T08:58:33.853Z,99978.72
2022-12-17T09:00:25.212Z,99985.63
2022-12-17T09:02:15.942Z,99986.47
2022-12-17T09:04:06.557Z,99975.34
2022-12-17T09:05:57.214Z,99954.81
2022-12-17T09:07:47.845Z,99967.63
2022-12-17T09:09:38.440Z,99971.09
2022-12-17T09:11:29.040Z,99966.78
2022-12-17T09:13:22.752Z,99992.47
2022-12-17T09:15:13.557Z,100005.31
2022-12-17T09:17:04.332Z,100021.59
2022-12-17T09:18:55.103Z,100016.50
2022-12-17T09:20:45.763Z,100060.97
2022-12-17T09:22:36.604Z,100114.94
2022-12-17T09:24:28.864Z,100101.28
2022-12-17T09:26:19.528Z,100065.31
2022-12-17T09:28:10.272Z,100052.47
2022-12-17T09:30:00.992Z,100041.34
2022-12-17T09:31:51.771Z,100019.09
2022-12-17T09:33:42.437Z,100007.09
2022-12-17T09:35:33.152Z,99996.00
2022-12-17T09:37:24.386Z,99995.16
2022-12-17T09:39:15.151Z,99978.91
2022-12-17T09:41:07.931Z,99932.66
2022-12-17T09:43:43.594Z,99934.38
2022-12-17T09:45:45.078Z,99923.25
2022-12-17T09:48:03.774Z,99924.09
2022-12-17T09:49:54.494Z,99927.53
2022-12-17T09:51:46.884Z,99909.53
2022-12-17T09:53:58.867Z,99917.22
2022-12-17T09:55:53.169Z,99923.22
2022-12-17T09:57:54.801Z,99935.22
2022-12-17T09:59:47.846Z,99935.19
2022-12-17T10:01:47.403Z,99918.91
2022-12-17T10:03:41.079Z,99928.34
2022-12-17T10:05:40.404Z,99936.91
2022-12-17T10:07:33.288Z,99950.66
2022-12-17T10:09:37.381Z,99942.91
2022-12-17T10:13:00.875Z,99929.19
2022-12-17T10:14:51.747Z,99917.19
2022-12-17T10:16:45.259Z,99906.00
2022-12-17T10:18:35.921Z,99902.56
2022-12-17T10:20:51.614Z,99908.56
2022-12-17T10:22:42.687Z,99893.13
2022-12-17T10:24:33.489Z,99897.44
2022-12-17T10:26:25.229Z,99894.81
2022-12-17T10:28:21.041Z,99887.94
2022-12-17T10:30:12.357Z,99884.50
2022-12-17T10:32:03.284Z,99865.63
2022-12-17T10:33:58.000Z,99849.25
2022-12-17T10:35:55.744Z,99839.81
2022-12-17T10:37:46.748Z,99820.03
2022-12-17T10:39:40.557Z,99826.91
2022-12-17T10:41:41.069Z,99796.75
2022-12-17T10:43:46.453Z,99768.38
2022-12-17T10:45:40.621Z,99752.03
2022-12-17T10:47:32.695Z,99749.44
2022-12-17T10:49:35.205Z,99739.03
2022-12-17T10:51:37.386Z,99737.22
2022-12-17T10:53:42.142Z,99730.28
2022-12-17T10:55:46.316Z,99728.47
2022-12-17T10:57:57.512Z,99710.38
2022-12-17T10:59:55.618Z,99688.84
2022-12-17T11:01:46.528Z,99676.75
2022-12-17T11:04:05.024Z,99686.09
2022-12-17T11:05:59.597Z,99712.72
2022-12-17T11:07:53.499Z,99702.22
2022-12-17T11:10:08.638Z,99701.16
2022-12-17T11:12:05.664Z,99705.28
2022-12-17T11:14:04.127Z,99707.63
2022-12-17T11:15:59.337Z,99719.53
2022-12-17T11:17:50.103Z,99724.63
2022-12-17T11:19:47.523Z,99735.56
2022-12-17T11:21:45.873Z,99746.56
2022-12-17T11:23:38.612Z,99732.59
2022-12-17T11:26:06.857Z,99717.75
2022-12-17T11:28:03.757Z,99721.97
2022-12-17T11:29:57.360Z,99712.44
2022-12-17T11:32:03.038Z,99722.53
2022-12-17T11:33:58.260Z,99727.47
2022-12-17T11:36:02.711Z,99707.28
2022-12-17T11:38:22.440Z,99717.34
2022-12-17T11:40:18.867Z,99706.59
2022-12-17T11:42:38.293Z,99687.81
2022-12-17T11:45:14.828Z,99672.88
2022-12-17T11:47:21.690Z,99666.66
2022-12-17T11:49:42.032Z,99704.69
2022-12-17T11:51:47.416Z,99740.66
2022-12-17T11:53:45.743Z,99745.72
2022-12-17T11:55:56.180Z,99772.13
2022-12-17T11:58:10.494Z,99775.94
2022-12-17T12:00:08.574Z,99796.94
2022-12-17T12:02:28.080Z,99797.13
2022-12-17T12:04:53.638Z,99789.66
2022-12-17T12:06:43.859Z,99786.97
2022-12-17T12:08:46.976Z,99787.66
2022-12-17T12:11:17.539Z,99769.56
2022-12-17T12:13:48.898Z,99764.50
2022-12-17T12:16:01.342Z,99761.03
2022-12-17T12:18:13.348Z,99753.31
2022-12-17T12:20:09.954Z,99741.22
2022-12-17T12:22:13.792Z,99736.00
2022-12-17T12:24:07.485Z,99736.84
2022-12-17T12:26:06.968Z,99747.00
2022-12-17T12:28:22.799Z,99761.53
2022-12-17T12:30:40.077Z,99784.63
2022-12-17T12:32:42.824Z,99788.53
2022-12-17T12:34:37.386Z,99790.84
2022-12-17T12:36:30.557Z,99794.97
2022-12-17T12:38:24.726Z,99805.28
2022-12-17T12:40:18.509Z,99817.31
2022-12-17T12:42:26.573Z,99824.78
2022-12-17T12:44:19.413Z,99825.44
2022-12-17T12:46:16.766Z,99820.91
2022-12-17T12:48:17.904Z,99832.84
2022-12-17T12:50:42.421Z,99832.75
2022-12-17T12:52:40.726Z,99830.09
2022-12-17T12:54:51.763Z,99826.53
2022-12-17T12:56:47.460Z,99826.44
2022-12-17T12:58:47.202Z,99828.03
2022-12-17T13:00:41.260Z,99834.88
2022-12-17T13:02:48.996Z,99826.81
2022-12-17T13:04:52.830Z,99825.78
2022-12-17T13:06:56.803Z,99833.47
2022-12-17T13:08:29.063Z,99843.03
2022-12-17T13:10:01.247Z,99840.38
2022-12-17T13:11:39.492Z,99847.16
2022-12-17T13:13:31.863Z,99850.56
2022-12-17T13:15:06.500Z,99847.88
2022-12-17T13:17:05.487Z,99851.28
2022-12-17T13:18:41.272Z,99851.34
2022-12-17T13:20:26.481Z,99859.84
2022-12-17T13:22:24.053Z,99862.34
2022-12-17T13:23:56.654Z,99873.75
2022-12-17T13:25:29.632Z,99881.69
2022-12-17T13:27:01.690Z,99882.41
2022-12-17T13:28:33.773Z,99900.63
2022-12-17T13:30:21.973Z,99895.44
2022-12-17T13:31:57.352Z,99903.59
2022-12-17T13:34:07.403Z,99914.13
2022-12-17T13:36:20.711Z,99917.09
2022-12-17T13:38:02.315Z,99912.78
2022-12-17T13:41:12.782Z,99921.28
2022-12-17T13:42:46.434Z,99930.16
2022-12-17T13:44:21.776Z,99933.88
2022-12-17T13:45:55.771Z,99943.41
2022-12-17T13:47:32.879Z,99941.78
2022-12-17T13:49:12.174Z,99942.03
2022-12-17T13:50:54.195Z,99944.69
2022-12-17T13:52:27.743Z,99947.47
2022-12-17T13:54:01.612Z,99957.97
2022-12-17T13:55:33.680Z,99975.38
2022-12-17T13:57:28.128Z,99972.16
2022-12-17T13:59:08.380Z,99971.28
2022-12-17T14:00:41.488Z,99972.47
2022-12-17T14:02:31.855Z,99985.38
2022-12-17T14:04:06.660Z,99993.41
2022-12-17T14:05:42.673Z,99990.88
2022-12-17T14:07:14.831Z,99983.16
2022-12-17T14:08:48.414Z,99993.50
2022-12-17T14:10:20.915Z,99995.41
2022-12-17T14:12:11.541Z,99987.69
2022-12-17T14:13:48.468Z,99986.91
2022-12-17T14:15:25.202Z,99992.97
2022-12-17T14:16:57.350Z,100007.09
2022-12-17T14:18:29.463Z,100013.25
2022-12-17T14:20:21.538Z,100012.31
2022-12-17T14:21:53.732Z,100018.56
2022-12-17T14:23:33.045Z,100012.63
2022-12-17T14:25:07.030Z,100026.53
2022-12-17T14:26:50.282Z,100025.75
2022-12-17T14:28:39.116Z,100036.25
2022-12-17T14:30:26.353Z,100040.56
2022-12-17T14:32:00.854Z,100048.47
2022-12-17T14:33:38.068Z,100056.38
2022-12-17T14:35:27.374Z,100071.13
2022-12-17T14:37:00.827Z,100070.38
2022-12-17T14:38:42.014Z,100078.16
2022-12-17T14:40:16.209Z,100078.31
2022-12-17T14:42:07.022Z,100076.69
2022-12-17T14:43:39.058Z,100086.25
2022-12-17T14:45:17.160Z,100086.25
2022-12-17T14:46:49.411Z,100086.41
2022-12-17T14:48:45.822Z,100083.84
2022-12-17T14:50:17.744Z,100090.03
2022-12-17T14:51:50.494Z,100091.84
2022-12-17T14:53:27.762Z,100093.59
2022-12-17T14:54:59.953Z,100091.13
2022-12-17T14:56:32.032Z,100104.09
2022-12-17T14:58:13.116Z,100109.25
2022-12-17T14:59:45.731Z,100103.34
2022-12-17T15:01:17.918Z,100093.06
2022-12-17T15:02:53.216Z,100106.84
2022-12-17T15:04:25.669Z,100100.91
2022-12-17T15:06:18.885Z,100104.34
2022-12-17T15:07:52.220Z,100112.22
2022-12-17T15:09:24.488Z,100120.00
2022-12-17T15:10:56.518Z,100117.50
2022-12-17T15:12:28.697Z,100122.78
2022-12-17T15:14:01.074Z,100129.81
2022-12-17T15:15:33.109Z,100127.38
2022-12-17T15:17:06.235Z,100130.06
2022-12-17T15:18:41.404Z,100131.84
2022-12-17T15:20:18.593Z,100142.25
2022-12-17T15:21:51.156Z,100146.66
2022-12-17T15:23:23.923Z,100145.81
2022-12-17T15:24:56.121Z,100149.31
2022-12-17T15:26:28.299Z,100140.78
2022-12-17T15:28:00.423Z,100150.34
2022-12-17T15:29:32.522Z,100159.88
2022-12-17T15:31:04.754Z,100158.22
2022-12-17T15:32:36.837Z,100170.28
2022-12-17T15:34:11.208Z,100171.19
2022-12-17T15:35:43.700Z,100176.38
2022-12-17T15:37:18.802Z,100168.66
2022-12-17T15:38:54.615Z,100168.69
2022-12-17T15:40:26.816Z,100163.53
2022-12-17T15:42:17.389Z,100167.88
2022-12-17T15:43:50.401Z,100173.97
2022-12-17T15:45:25.161Z,100173.97
2022-12-17T15:46:57.240Z,100181.81
2022-12-17T15:48:29.658Z,100181.00
2022-12-17T15:50:01.625Z,100182.78
2022-12-17T15:51:33.689Z,100189.69
2022-12-17T15:53:05.757Z,100191.44
2022-12-17T15:54:37.905Z,100195.75
2022-12-17T15:56:25.464Z,100197.47
2022-12-17T15:57:58.898Z,100202.66
2022-12-17T15:59:33.957Z,100198.38
2022-12-17T16:01:06.945Z,100200.16
2022-12-17T16:02:39.382Z,100208.78
2022-12-17T16:04:17.893Z,100209.66
2022-12-17T16:05:53.696Z,100206.25
2022-12-17T16:07:25.873Z,100207.97
2022-12-17T16:08:58.012Z,100215.75
2022-12-17T16:10:30.527Z,100214.91
2022-12-17T16:12:02.611Z,100210.63
2022-12-17T16:13:34.666Z,100218.38
2022-12-17T16:15:08.484Z,100224.38
2022-12-17T16:16:40.534Z,100216.69
2022-12-17T16:19:50.236Z,100226.16
2022-12-17T16:21:22.283Z,100225.31
2022-12-17T16:22:54.295Z,100228.75
2022-12-17T16:24:26.371Z,100229.63
2022-12-17T16:25:59.960Z,100224.47
2022-12-17T16:27:32.075Z,100227.94
2022-12-17T16:29:04.284Z,100241.69
2022-12-17T16:30:36.288Z,100242.53
2022-12-17T16:32:08.407Z,100251.16
2022-12-17T16:33:42.519Z,100258.88
2022-12-17T16:35:14.600Z,100254.59
2022-12-17T16:36:46.638Z,100252.84
2022-12-17T16:38:18.894Z,100255.47
2022-12-17T16:39:59.582Z,100258.91
2022-12-17T16:41:32.933Z,100262.31
2022-12-17T16:43:04.925Z,100263.19
2022-12-17T16:44:37.161Z,100264.06
2022-12-17T16:46:39.153Z,100264.91
2022-12-17T16:48:11.264Z,100269.22
2022-12-17T16:49:43.367Z,100264.03
2022-12-17T16:51:27.926Z,100271.78
2022-12-17T16:53:00.819Z,100273.50
2022-12-17T16:54:34.052Z,100270.06
2022-12-17T16:56:06.509Z,100284.69
2022-12-17T16:57:38.521Z,100281.22
2022-12-17T16:59:11.698Z,100279.53
2022-12-17T17:00:44.047Z,100285.53
2022-12-17T17:02:16.708Z,100282.09
2022-12-17T17:03:49.958Z,100292.41
2022-12-17T17:05:22.052Z,100291.56
2022-12-17T17:06:56.354Z,100294.13
2022-12-17T17:08:31.308Z,100301.00
2022-12-17T17:10:03.428Z,100307.88
2022-12-17T17:11:35.990Z,100310.47
2022-12-17T17:13:08.036Z,100305.28
2022-12-17T17:14:40.817Z,100312.16
2022-12-17T17:16:12.936Z,100307.00
2022-12-17T17:19:19.600Z,100313.03
2022-12-17T17:20:51.698Z,100310.44
2022-12-17T17:22:23.789Z,100318.19
2022-12-17T17:23:58.869Z,100316.47
2022-12-17T17:25:50.231Z,100321.63
2022-12-17T17:27:22.923Z,100327.66
2022-12-17T17:28:55.034Z,100333.69
2022-12-17T17:30:28.235Z,100326.78
2022-12-17T17:32:15.525Z,100336.25
2022-12-17T17:33:49.643Z,100339.69
2022-12-17T17:35:21.661Z,100346.56
2022-12-17T17:36:53.780Z,100344.88
2022-12-17T17:38:25.905Z,100348.28
2022-12-17T17:39:57.991Z,100350.88
2022-12-17T17:41:32.485Z,100350.00
2022-12-17T17:43:04.476Z,100349.16
2022-12-17T17:44:37.534Z,100353.44
2022-12-17T17:46:12.644Z,100350.00
2022-12-17T17:47:44.798Z,100350.84
2022-12-17T17:49:17.412Z,100348.31
2022-12-17T17:51:03.888Z,100347.41
2022-12-17T17:54:14.508Z,100347.44
2022-12-17T17:55:46.588Z,100355.19
2022-12-17T17:57:18.655Z,100356.91
2022-12-17T17:58:56.108Z,100360.31
2022-12-17T18:00:28.621Z,100357.72
2022-12-17T18:02:01.297Z,100375.78
2022-12-17T18:03:33.631Z,100367.22
2022-12-17T18:05:06.341Z,100373.22
2022-12-17T18:06:43.014Z,100373.22
2022-12-17T18:08:25.147Z,100368.94
2022-12-17T18:09:57.717Z,100371.50
2022-12-17T18:11:31.152Z,100380.97
2022-12-17T18:13:22.100Z,100366.34
2022-12-17T18:16:47.728Z,100381.81
2022-12-17T18:18:21.993Z,100384.41
2022-12-17T18:19:54.047Z,100391.28
2022-12-17T18:21:27.564Z,100388.72
2022-12-17T18:22:59.445Z,100389.56
2022-12-17T18:24:31.463Z,100388.69
2022-12-17T18:26:18.100Z,100390.41
2022-12-17T18:27:53.074Z,100386.97
2022-12-17T18:29:27.152Z,100386.09
2022-12-17T18:30:59.576Z,100384.41
2022-12-17T18:32:31.750Z,100383.53
2022-12-17T18:34:04.986Z,100381.81
2022-12-17T18:35:37.020Z,100389.56
2022-12-17T18:37:09.239Z,100393.00
2022-12-17T18:38:41.989Z,100394.72
2022-12-17T18:40:14.323Z,100394.72
2022-12-17T18:42:05.992Z,100399.03
2022-12-17T18:43:40.168Z,100399.03
2022-12-17T18:45:12.187Z,100400.75
2022-12-17T18:46:44.435Z,100402.47
2022-12-17T18:48:16.535Z,100411.91
2022-12-17T18:49:48.699Z,100419.66
2022-12-17T18:51:22.411Z,100421.38
2022-12-17T18:52:54.571Z,100423.09
2022-12-17T18:54:28.627Z,100425.69
2022-12-17T18:56:08.417Z,100424.81
2022-12-17T18:57:41.061Z,100432.56
2022-12-17T18:59:14.016Z,100433.44
2022-12-17T19:00:46.138Z,100434.28
2022-12-17T19:02:18.874Z,100427.41
2022-12-17T19:03:51.713Z,100431.72
2022-12-17T19:05:23.753Z,100440.31
2022-12-17T19:06:58.815Z,100440.31
2022-12-17T19:08:30.863Z,100437.75
2022-12-17T19:10:03.134Z,100448.06
2022-12-17T19:11:41.936Z,100446.34
2022-12-17T19:13:15.552Z,100446.31
2022-12-17T19:14:47.564Z,100453.22
2022-12-17T19:16:22.599Z,100450.66
2022-12-17T19:17:54.658Z,100458.38
2022-12-17T19:19:27.044Z,100459.25
2022-12-17T19:20:59.587Z,100465.28
2022-12-17T19:22:31.594Z,100466.97
2022-12-17T19:24:06.814Z,100473.00
2022-12-17T19:25:38.874Z,100470.44
2022-12-17T19:27:11.096Z,100474.72
2022-12-17T19:28:44.914Z,100474.72
2022-12-17T19:30:17.507Z,100473.00
2022-12-17T19:31:49.769Z,100472.13
2022-12-17T19:33:22.019Z,100477.28
2022-12-17T19:34:54.168Z,100482.47
2022-12-17T19:36:28.605Z,100488.47
2022-12-17T19:38:03.892Z,100497.09
2022-12-17T19:39:35.910Z,100494.50
2022-12-17T19:41:15.187Z,100502.25
2022-12-17T19:42:47.301Z,100498.81
2022-12-17T19:44:22.564Z,100495.38
2022-12-17T19:45:54.638Z,100511.72
2022-12-17T19:47:27.084Z,100513.44
2022-12-17T19:48:59.601Z,100514.31
2022-12-17T19:50:31.614Z,100519.44
2022-12-17T19:52:03.669Z,100510.84
2022-12-17T19:53:36.674Z,100514.28
2022-12-17T19:55:09.180Z,100515.16
2022-12-17T19:56:42.545Z,100516.91
2022-12-17T19:58:14.917Z,100521.19
2022-12-17T19:59:47.189Z,100522.03
2022-12-17T20:01:21.803Z,100524.63
2022-12-17T20:02:54.091Z,100528.06
2022-12-17T20:04:26.247Z,100528.91
2022-12-17T20:05:59.346Z,100525.50
2022-12-17T20:07:31.300Z,100534.09
2022-12-17T20:09:06.013Z,100531.53
2022-12-17T20:10:38.719Z,100528.06
2022-12-17T20:12:11.363Z,100536.69
2022-12-17T20:13:43.391Z,100539.25
2022-12-17T20:15:15.645Z,100539.25
2022-12-17T20:16:53.328Z,100539.25
2022-12-17T20:18:25.448Z,100538.38
2022-12-17T20:19:58.103Z,100550.44
2022-12-17T20:21:30.346Z,100549.59
2022-12-17T20:23:02.369Z,100553.03
2022-12-17T20:24:34.462Z,100557.31
2022-12-17T20:26:08.848Z,100554.75
2022-12-17T20:27:41.017Z,100563.34
2022-12-17T20:29:13.138Z,100557.31
2022-12-17T20:30:45.371Z,100565.94
2022-12-17T20:32:19.697Z,100565.09
2022-12-17T20:33:51.817Z,100577.16
2022-12-17T20:35:23.867Z,100571.97
2022-12-17T20:36:55.913Z,100574.59
2022-12-17T20:38:27.963Z,100573.72
2022-12-17T20:40:00.017Z,100576.31
2022-12-17T20:41:32.651Z,100572.88
2022-12-17T20:43:04.990Z,100580.59
2022-12-17T20:44:36.961Z,100575.44
2022-12-17T20:46:10.053Z,100579.75
2022-12-17T20:47:42.090Z,100580.59
2022-12-17T20:49:15.094Z,100585.75
2022-12-17T20:50:47.180Z,100587.47
2022-12-17T20:52:19.556Z,100590.06